Time;durP1;ratioP1;P1;durP2;ratioP2;P2;SDS_P1;SDS_P2;PMS_P1;PMS_P2;Temp;Humidity;BMP_temperature;BMP_pressure;BME280_temperature;BME280_humidity;BME280_pressure;Samples;Min_cycle;Max_cycle;Signal;HPM_P1;HPM_P2
2022/01/04 00:01:08;;;;;;;248.73;26.80;;;6.50;96.00;;;;;;5073829;28;20215;-68
2022/01/04 00:03:36;;;;;;;184.70;26.50;;;6.50;96.10;;;;;;5072740;28;20223;-69
2022/01/04 00:06:03;;;;;;;101.37;23.13;;;6.50;96.10;;;;;;5072223;28;20211;-68
2022/01/04 00:08:30;;;;;;;175.67;22.77;;;6.50;96.10;;;;;;5057253;28;20205;-68
2022/01/04 00:11:07;;;;;;;181.43;25.87;;;6.50;96.10;;;;;;5058862;28;20235;-68
2022/01/04 00:13:34;;;;;;;129.77;22.23;;;6.50;96.40;;;;;;5059432;28;20216;-68
2022/01/04 00:16:03;;;;;;;94.73;21.83;;;6.50;96.10;;;;;;5065385;28;20228;-68
2022/01/04 00:18:30;;;;;;;90.50;20.97;;;6.40;96.10;;;;;;5057823;28;20215;-68
2022/01/04 00:20:57;;;;;;;133.83;21.80;;;6.50;96.10;;;;;;5057728;28;20209;-68
2022/01/04 00:23:24;;;;;;;227.70;25.27;;;6.40;96.10;;;;;;5066692;28;20232;-68
2022/01/04 00:25:51;;;;;;;96.17;19.70;;;6.40;96.00;;;;;;5061465;28;20255;-68
2022/01/04 00:28:19;;;;;;;123.33;21.20;;;6.40;95.90;;;;;;5061329;28;20651;-68
2022/01/04 00:30:46;;;;;;;114.80;20.37;;;6.40;95.90;;;;;;5062379;28;20237;-68
2022/01/04 00:33:16;;;;;;;93.07;21.60;;;6.30;95.90;;;;;;5063820;28;20239;-68
2022/01/04 00:35:45;;;;;;;80.93;18.90;;;6.30;95.90;;;;;;5062027;28;20551;-68
2022/01/04 00:38:13;;;;;;;230.33;22.10;;;6.30;95.90;;;;;;5062631;28;20209;-68
2022/01/04 00:40:40;;;;;;;314.13;25.30;;;6.30;96.00;;;;;;5063554;28;20439;-68
2022/01/04 00:43:07;;;;;;;393.40;27.53;;;6.20;96.00;;;;;;5074655;28;20309;-68
2022/01/04 00:45:36;;;;;;;318.50;26.90;;;6.20;96.00;;;;;;5068654;28;20211;-68
2022/01/04 00:50:35;;;;;;;183.80;23.77;;;6.20;96.10;;;;;;5067048;28;20225;-68
2022/01/04 00:53:04;;;;;;;376.20;28.13;;;6.20;96.10;;;;;;5066827;28;20245;-68
2022/01/04 00:55:31;;;;;;;86.10;18.87;;;6.20;96.10;;;;;;5067962;28;20204;-68
2022/01/04 00:57:59;;;;;;;166.47;21.93;;;6.20;96.10;;;;;;5065851;28;20204;-68
2022/01/04 01:00:26;;;;;;;204.27;26.83;;;6.20;96.10;;;;;;5065673;28;20208;-68
2022/01/04 01:02:54;;;;;;;221.13;22.30;;;6.20;96.10;;;;;;5067149;28;20547;-68
2022/01/04 01:05:24;;;;;;;98.03;19.27;;;6.20;96.10;;;;;;5067509;28;20584;-68
2022/01/04 01:07:56;;;;;;;166.37;21.40;;;6.10;96.00;;;;;;5073311;28;20232;-68
2022/01/04 01:13:03;;;;;;;302.50;24.63;;;6.10;96.00;;;;;;5065472;28;20280;-68
2022/01/04 01:15:30;;;;;;;224.07;22.63;;;6.10;96.00;;;;;;5064495;28;20210;-68
2022/01/04 01:17:57;;;;;;;234.27;22.90;;;6.10;96.00;;;;;;5064541;28;20207;-68
2022/01/04 01:20:24;;;;;;;205.50;21.77;;;6.10;96.10;;;;;;5069658;28;20285;-68
2022/01/04 01:22:51;;;;;;;137.73;21.87;;;6.00;96.00;;;;;;5068218;28;20206;-68
2022/01/04 01:25:20;;;;;;;221.80;22.30;;;6.00;96.10;;;;;;5061931;28;20312;-68
2022/01/04 01:27:47;;;;;;;178.60;19.80;;;6.00;96.20;;;;;;5067696;28;20548;-68
2022/01/04 01:30:15;;;;;;;308.97;25.50;;;6.00;96.20;;;;;;5071450;28;20220;-68
2022/01/04 01:32:42;;;;;;;323.17;24.70;;;6.00;96.10;;;;;;5071063;28;20209;-69
2022/01/04 01:35:09;;;;;;;337.83;24.37;;;6.00;96.20;;;;;;5061876;28;20301;-68
2022/01/04 01:37:36;;;;;;;346.57;25.90;;;6.10;96.20;;;;;;5063323;28;20212;-69
2022/01/04 01:40:04;;;;;;;77.70;21.07;;;6.00;96.10;;;;;;5060796;28;20202;-68
2022/01/04 01:42:31;;;;;;;240.40;23.87;;;6.00;96.10;;;;;;5059738;28;20201;-68
2022/01/04 01:44:58;;;;;;;253.70;24.40;;;6.00;96.10;;;;;;5059971;28;20216;-68
2022/01/04 01:47:26;;;;;;;126.07;22.17;;;6.00;96.40;;;;;;5059297;28;20527;-68
2022/01/04 01:49:53;;;;;;;268.43;26.63;;;6.00;96.20;;;;;;5058936;28;20624;-68
2022/01/04 01:52:20;;;;;;;77.80;18.83;;;6.00;96.20;;;;;;5066666;28;20229;-68
2022/01/04 01:54:48;;;;;;;60.07;17.20;;;6.00;96.20;;;;;;5074057;28;20198;-69
2022/01/04 01:57:15;;;;;;;328.90;24.37;;;6.00;96.20;;;;;;5075018;28;20203;-68
2022/01/04 01:59:42;;;;;;;389.43;32.37;;;6.00;96.20;;;;;;5074592;28;20224;-68
2022/01/04 02:02:09;;;;;;;155.27;22.40;;;6.00;96.00;;;;;;5058383;28;20547;-68
2022/01/04 02:04:36;;;;;;;146.20;22.17;;;6.00;96.10;;;;;;5076210;28;20591;-68
2022/01/04 02:07:04;;;;;;;123.23;22.00;;;6.00;96.20;;;;;;5075303;28;20213;-68
2022/01/04 02:09:32;;;;;;;59.00;18.83;;;6.00;96.20;;;;;;5062993;28;20206;-68
2022/01/04 02:12:00;;;;;;;122.83;21.53;;;6.00;96.30;;;;;;5055626;28;20602;-68
2022/01/04 02:14:27;;;;;;;120.27;20.93;;;6.00;96.30;;;;;;5059292;28;20224;-68
2022/01/04 02:16:54;;;;;;;99.50;21.50;;;6.10;96.40;;;;;;5065967;28;20709;-68
2022/01/04 02:19:21;;;;;;;171.57;22.33;;;6.10;96.30;;;;;;5072464;28;20213;-68
2022/01/04 02:21:48;;;;;;;92.83;20.57;;;6.10;96.30;;;;;;5069605;28;20209;-68
2022/01/04 02:24:15;;;;;;;58.07;19.97;;;6.20;96.30;;;;;;5061720;28;20223;-68
2022/01/04 02:26:43;;;;;;;75.90;21.70;;;6.20;96.30;;;;;;5058473;28;20246;-68
2022/01/04 02:29:10;;;;;;;55.47;19.03;;;6.20;96.30;;;;;;5059402;28;20224;-68
2022/01/04 02:31:37;;;;;;;69.30;21.10;;;6.20;96.30;;;;;;5059261;28;20563;-68
2022/01/04 02:34:04;;;;;;;55.37;20.93;;;6.30;96.30;;;;;;5059158;28;20212;-68
2022/01/04 02:36:31;;;;;;;48.70;20.40;;;6.30;96.30;;;;;;5060141;28;20210;-68
2022/01/04 02:38:58;;;;;;;54.30;19.20;;;6.30;96.20;;;;;;5063938;28;20192;-68
2022/01/04 02:41:25;;;;;;;58.10;20.03;;;6.30;96.20;;;;;;5069011;28;20233;-68
2022/01/04 02:43:52;;;;;;;42.83;20.63;;;6.30;96.20;;;;;;5068701;28;20212;-69
2022/01/04 02:46:19;;;;;;;58.50;19.43;;;6.40;96.20;;;;;;5068121;28;20209;-68
2022/01/04 02:48:47;;;;;;;78.33;20.30;;;6.40;96.10;;;;;;5065390;28;20206;-68
2022/01/04 02:51:14;;;;;;;49.37;19.70;;;6.40;96.10;;;;;;5060578;28;20225;-68
2022/01/04 02:53:41;;;;;;;60.80;19.70;;;6.40;96.10;;;;;;5062837;28;20213;-68
2022/01/04 02:56:08;;;;;;;71.17;20.87;;;6.40;96.00;;;;;;5062757;28;20241;-68
2022/01/04 02:58:35;;;;;;;65.13;21.87;;;6.40;96.00;;;;;;5062844;28;20196;-68
2022/01/04 03:01:03;;;;;;;55.70;19.77;;;6.40;96.00;;;;;;5065417;28;20561;-68
2022/01/04 03:03:31;;;;;;;60.17;20.13;;;6.40;96.00;;;;;;5065212;28;20549;-68
2022/01/04 03:05:58;;;;;;;65.73;22.13;;;6.40;96.00;;;;;;5064380;28;20209;-68
2022/01/04 03:08:26;;;;;;;58.97;22.07;;;6.50;96.00;;;;;;5064219;28;20235;-68
2022/01/04 03:10:53;;;;;;;53.97;20.27;;;6.40;95.90;;;;;;5063692;28;20233;-68
2022/01/04 03:13:20;;;;;;;71.27;21.97;;;6.50;95.90;;;;;;5062836;28;20221;-69
2022/01/04 03:15:47;;;;;;;80.93;21.23;;;6.50;95.90;;;;;;5045375;28;20206;-69
2022/01/04 03:18:14;;;;;;;58.60;20.43;;;6.50;95.90;;;;;;5062746;28;20243;-68
2022/01/04 03:20:41;;;;;;;58.50;21.73;;;6.50;95.90;;;;;;5061888;28;20205;-68
2022/01/04 03:23:10;;;;;;;59.03;20.33;;;6.50;95.90;;;;;;5060749;28;20205;-68
2022/01/04 03:25:40;;;;;;;76.13;20.80;;;6.50;95.90;;;;;;5059743;28;20235;-68
2022/01/04 03:28:12;;;;;;;111.57;20.97;;;6.50;95.90;;;;;;5061186;28;20289;-68
2022/01/04 03:30:39;;;;;;;90.87;20.83;;;6.50;95.90;;;;;;5060435;28;20201;-68
2022/01/04 03:33:06;;;;;;;66.73;20.87;;;6.50;95.90;;;;;;5062453;28;20204;-68
2022/01/04 03:35:33;;;;;;;75.20;21.53;;;6.50;95.90;;;;;;5069262;28;20202;-68
2022/01/04 03:38:00;;;;;;;80.13;22.53;;;6.60;95.90;;;;;;5069471;28;20200;-68
2022/01/04 03:53:52;;;;;;;80.20;19.97;;;6.60;95.90;;;;;;1397140;26;20249;-68
2022/01/04 03:56:20;;;;;;;76.00;20.40;;;6.60;95.90;;;;;;5027874;28;20221;-68
2022/01/04 03:58:47;;;;;;;196.43;23.03;;;6.60;95.90;;;;;;5000347;28;20210;-68
2022/01/04 04:01:14;;;;;;;339.50;28.43;;;6.60;95.90;;;;;;5031794;28;20218;-68
2022/01/04 04:03:42;;;;;;;92.23;21.90;;;6.60;95.90;;;;;;5021171;28;20209;-68
2022/01/04 04:06:09;;;;;;;127.67;21.73;;;6.60;95.90;;;;;;5016246;28;20248;-68
2022/01/04 04:08:36;;;;;;;247.73;25.87;;;6.60;95.90;;;;;;5011186;28;20202;-68
2022/01/04 04:11:03;;;;;;;171.50;23.40;;;6.60;95.90;;;;;;5030488;28;20575;-68
2022/01/04 04:13:30;;;;;;;78.87;21.33;;;6.60;95.90;;;;;;5034002;28;20213;-68
2022/01/04 04:15:57;;;;;;;103.50;21.47;;;6.60;95.90;;;;;;5033752;28;20206;-68
2022/01/04 04:18:24;;;;;;;86.60;22.63;;;6.60;96.00;;;;;;5033984;28;20541;-68
2022/01/04 04:20:51;;;;;;;110.13;21.80;;;6.60;96.00;;;;;;5033447;28;20210;-68
2022/01/04 04:23:18;;;;;;;181.43;25.10;;;6.70;96.00;;;;;;5030917;28;20533;-68
2022/01/04 04:25:46;;;;;;;165.80;23.23;;;6.70;96.00;;;;;;5030510;28;20217;-68
2022/01/04 04:28:13;;;;;;;101.43;22.77;;;6.70;96.00;;;;;;5028357;28;20205;-68
2022/01/04 04:30:40;;;;;;;94.80;22.70;;;6.70;96.00;;;;;;5028246;28;20633;-68
2022/01/04 04:33:08;;;;;;;141.27;23.10;;;6.70;96.00;;;;;;5032019;28;20292;-68
2022/01/04 04:35:35;;;;;;;97.80;21.73;;;6.70;95.90;;;;;;5015401;28;20206;-68
2022/01/04 04:38:02;;;;;;;104.20;20.47;;;6.70;96.00;;;;;;5033901;28;20201;-68
2022/01/04 04:40:30;;;;;;;114.03;21.93;;;6.70;95.90;;;;;;5033320;28;20201;-68
2022/01/04 04:42:57;;;;;;;99.97;19.90;;;6.70;95.90;;;;;;5033982;28;20209;-68
2022/01/04 04:45:24;;;;;;;136.50;20.97;;;6.70;95.90;;;;;;5026026;28;20660;-68
2022/01/04 04:47:51;;;;;;;148.43;21.00;;;6.70;95.90;;;;;;5033769;28;20200;-68
2022/01/04 04:50:18;;;;;;;78.50;20.00;;;6.70;95.90;;;;;;5026554;28;20214;-68
2022/01/04 04:52:45;;;;;;;73.07;20.17;;;6.70;95.90;;;;;;5016419;28;20228;-68
2022/01/04 04:55:12;;;;;;;64.30;19.17;;;6.70;95.90;;;;;;5031138;28;20248;-68
2022/01/04 04:57:40;;;;;;;113.67;20.90;;;6.70;95.90;;;;;;5036950;28;20635;-68
2022/01/04 05:00:08;;;;;;;68.27;19.63;;;6.70;95.90;;;;;;5037362;28;20209;-68
2022/01/04 05:02:36;;;;;;;174.23;20.77;;;6.70;95.90;;;;;;5036810;28;20631;-68
2022/01/04 05:05:03;;;;;;;95.93;17.10;;;6.80;95.90;;;;;;5027735;28;20214;-68
2022/01/04 05:07:30;;;;;;;86.70;17.97;;;6.70;95.90;;;;;;5019453;28;20210;-68
2022/01/04 05:09:57;;;;;;;89.60;17.00;;;6.70;95.90;;;;;;5025705;28;20210;-68
2022/01/04 05:12:24;;;;;;;99.10;16.37;;;6.70;95.90;;;;;;5036571;28;20225;-68
2022/01/04 05:14:52;;;;;;;77.37;15.57;;;6.70;95.90;;;;;;5019589;28;20218;-68
2022/01/04 05:17:19;;;;;;;167.97;18.97;;;6.70;95.90;;;;;;5034411;28;20213;-68
2022/01/04 05:19:46;;;;;;;86.73;16.37;;;6.70;95.90;;;;;;5037051;28;20203;-68
2022/01/04 05:22:13;;;;;;;72.43;16.20;;;6.70;95.90;;;;;;5028639;28;20226;-68
2022/01/04 05:24:40;;;;;;;77.53;19.03;;;6.70;95.90;;;;;;5029663;28;20684;-68
2022/01/04 05:27:08;;;;;;;193.33;19.63;;;6.70;95.90;;;;;;5033949;28;20205;-68
2022/01/04 05:29:35;;;;;;;120.33;19.10;;;6.70;95.90;;;;;;5031161;28;20202;-68
2022/01/04 05:32:03;;;;;;;98.27;18.43;;;6.70;95.90;;;;;;5034647;28;20665;-68
2022/01/04 05:34:30;;;;;;;157.97;19.33;;;6.70;95.90;;;;;;5036555;28;20216;-68
2022/01/04 05:36:57;;;;;;;69.40;16.70;;;6.70;95.90;;;;;;5036457;28;20205;-68
2022/01/04 05:39:24;;;;;;;86.90;18.57;;;6.70;95.90;;;;;;5036601;28;20210;-68
2022/01/04 05:41:52;;;;;;;263.27;23.63;;;6.70;95.90;;;;;;5011847;28;20646;-68
2022/01/04 05:44:19;;;;;;;83.40;18.53;;;6.70;95.90;;;;;;5019118;28;20228;-68
2022/01/04 05:46:46;;;;;;;165.87;19.30;;;6.70;95.80;;;;;;5036247;28;20540;-68
2022/01/04 05:49:13;;;;;;;89.43;17.43;;;6.60;95.80;;;;;;5036501;28;20644;-68
2022/01/04 05:51:41;;;;;;;61.63;16.77;;;6.70;95.90;;;;;;5035739;28;20553;-68
2022/01/04 05:54:08;;;;;;;189.57;20.03;;;6.60;95.80;;;;;;5036143;28;20257;-68
2022/01/04 05:56:35;;;;;;;63.37;15.73;;;6.60;95.80;;;;;;5018152;28;20544;-68
2022/01/04 05:59:02;;;;;;;118.77;18.10;;;6.60;95.80;;;;;;5036141;28;20210;-68
2022/01/04 06:01:29;;;;;;;99.53;15.63;;;6.60;95.80;;;;;;5035110;28;20206;-68
2022/01/04 06:03:57;;;;;;;95.20;18.00;;;6.60;95.80;;;;;;5034252;28;20203;-68
2022/01/04 06:06:24;;;;;;;65.00;15.67;;;6.60;95.70;;;;;;5034657;28;20218;-68
2022/01/04 06:08:51;;;;;;;80.13;16.13;;;6.60;95.70;;;;;;5035729;28;20556;-68
2022/01/04 06:11:31;;;;;;;56.63;15.57;;;6.50;95.70;;;;;;5035518;28;20662;-68
2022/01/04 06:16:46;;;;;;;63.13;14.87;;;6.50;95.70;;;;;;5035293;28;20199;-68
2022/01/04 06:19:13;;;;;;;68.33;14.40;;;6.50;95.80;;;;;;5035784;28;20582;-68
2022/01/04 06:21:40;;;;;;;63.50;14.60;;;6.50;95.80;;;;;;5035282;28;20208;-68
2022/01/04 06:24:07;;;;;;;79.63;16.07;;;6.50;95.80;;;;;;5035638;28;20224;-68
2022/01/04 06:26:34;;;;;;;103.97;16.10;;;6.50;95.80;;;;;;5035109;28;20213;-68
2022/01/04 06:29:02;;;;;;;68.20;15.50;;;6.50;95.80;;;;;;5015000;28;20206;-68
2022/01/04 06:31:30;;;;;;;63.40;15.90;;;6.50;95.80;;;;;;5035001;28;20199;-68
2022/01/04 06:33:58;;;;;;;40.03;15.03;;;6.50;95.80;;;;;;5035352;28;20200;-68
2022/01/04 06:36:25;;;;;;;57.47;15.57;;;6.40;95.90;;;;;;5017379;28;20213;-68
2022/01/04 06:38:52;;;;;;;47.87;15.87;;;6.40;95.90;;;;;;5035057;28;20630;-68
2022/01/04 06:41:19;;;;;;;30.77;15.40;;;6.40;95.90;;;;;;5034388;28;20206;-68
2022/01/04 06:43:46;;;;;;;41.67;15.30;;;6.40;95.90;;;;;;5035272;28;20211;-68
2022/01/04 06:46:13;;;;;;;36.47;15.17;;;6.40;96.00;;;;;;5017679;28;20233;-68
2022/01/04 06:48:41;;;;;;;41.77;15.17;;;6.50;96.00;;;;;;5035195;28;20248;-68
2022/01/04 06:51:09;;;;;;;35.40;15.40;;;6.50;95.90;;;;;;5029438;28;20210;-68
2022/01/04 06:53:36;;;;;;;35.07;15.00;;;6.50;95.90;;;;;;5013534;28;20234;-68
2022/01/04 06:56:04;;;;;;;34.90;13.47;;;6.50;95.90;;;;;;5023377;28;20307;-68
2022/01/04 06:58:31;;;;;;;34.13;14.47;;;6.50;95.90;;;;;;5017407;28;20646;-68
2022/01/04 07:00:58;;;;;;;50.80;13.83;;;6.50;95.90;;;;;;5026127;28;20220;-68
2022/01/04 07:03:30;;;;;;;37.17;14.60;;;6.50;95.90;;;;;;5034934;28;20241;-68
2022/01/04 07:05:57;;;;;;;29.47;13.37;;;6.50;95.90;;;;;;5032907;28;20214;-68
2022/01/04 07:08:25;;;;;;;35.83;13.57;;;6.50;95.80;;;;;;5034901;28;20226;-68
2022/01/04 07:10:52;;;;;;;37.57;13.13;;;6.50;95.80;;;;;;5034326;28;20646;-68
2022/01/04 07:13:19;;;;;;;26.97;13.03;;;6.50;95.80;;;;;;5032844;28;20229;-68
2022/01/04 07:15:46;;;;;;;26.83;12.77;;;6.50;95.80;;;;;;5034383;28;20256;-68
2022/01/04 07:18:13;;;;;;;40.93;14.33;;;6.50;95.80;;;;;;5015758;28;20218;-68
2022/01/04 07:20:40;;;;;;;28.37;14.10;;;6.50;95.80;;;;;;5014969;28;20201;-68
2022/01/04 07:23:08;;;;;;;28.87;13.40;;;6.50;95.80;;;;;;5035015;28;20214;-68
2022/01/04 07:25:35;;;;;;;25.27;11.87;;;6.50;95.80;;;;;;5025417;28;20221;-68
2022/01/04 07:28:02;;;;;;;30.43;12.67;;;6.50;95.80;;;;;;5034594;28;20213;-68
2022/01/04 07:30:29;;;;;;;32.77;14.10;;;6.50;95.80;;;;;;5034350;28;20203;-68
2022/01/04 07:32:56;;;;;;;68.43;14.80;;;6.50;95.80;;;;;;5034411;28;20572;-68
2022/01/04 07:35:23;;;;;;;35.17;14.03;;;6.50;95.80;;;;;;5032273;28;20515;-68
2022/01/04 07:37:50;;;;;;;36.77;13.97;;;6.60;95.70;;;;;;5034762;28;20202;-68
2022/01/04 07:40:18;;;;;;;69.40;15.43;;;6.60;95.70;;;;;;5022376;28;20211;-68
2022/01/04 07:42:45;;;;;;;32.73;14.60;;;6.60;95.80;;;;;;5034379;28;20201;-68
2022/01/04 07:45:12;;;;;;;34.10;14.07;;;6.60;95.70;;;;;;5034293;28;20213;-69
2022/01/04 07:47:41;;;;;;;59.03;15.80;;;6.60;95.70;;;;;;5034172;28;20233;-68
2022/01/04 07:50:11;;;;;;;83.77;17.60;;;6.60;95.70;;;;;;5031729;28;20627;-68
2022/01/04 07:52:38;;;;;;;41.80;15.60;;;6.60;95.70;;;;;;5033801;28;20238;-68
2022/01/04 07:55:06;;;;;;;44.33;18.47;;;6.60;95.70;;;;;;5016725;28;20689;-68
2022/01/04 07:57:35;;;;;;;39.57;16.93;;;6.60;95.80;;;;;;5016716;28;20202;-68
2022/01/04 08:00:04;;;;;;;42.30;15.90;;;6.60;95.70;;;;;;5033926;28;20293;-68
2022/01/04 08:02:41;;;;;;;40.50;16.43;;;6.70;95.70;;;;;;5016310;28;20222;-68
2022/01/04 08:05:09;;;;;;;40.63;17.40;;;6.70;95.80;;;;;;5017241;28;20231;-68
2022/01/04 08:07:37;;;;;;;47.77;18.90;;;6.70;95.70;;;;;;5033736;28;20298;-68
2022/01/04 08:10:05;;;;;;;42.90;17.43;;;6.70;95.80;;;;;;5032317;28;20211;-68
2022/01/04 08:12:32;;;;;;;45.97;17.23;;;6.70;95.70;;;;;;5034087;28;20585;-68
2022/01/04 08:14:59;;;;;;;38.17;16.87;;;6.70;95.70;;;;;;5034222;28;20221;-68
2022/01/04 08:17:26;;;;;;;39.93;17.93;;;6.80;95.80;;;;;;5033830;28;20213;-68
2022/01/04 08:19:53;;;;;;;50.27;24.00;;;6.80;95.70;;;;;;5034080;28;20209;-68
2022/01/04 08:22:20;;;;;;;49.27;19.23;;;6.80;95.70;;;;;;5033658;28;20265;-68
2022/01/04 08:24:47;;;;;;;43.73;17.87;;;6.80;95.60;;;;;;5016854;28;20206;-68
2022/01/04 08:27:14;;;;;;;48.83;23.83;;;6.80;95.50;;;;;;5033553;28;20515;-68
2022/01/04 08:29:41;;;;;;;46.97;22.80;;;6.80;95.60;;;;;;5016326;28;20548;-68
2022/01/04 08:32:08;;;;;;;83.70;46.93;;;6.90;95.60;;;;;;5019754;28;20220;-68
2022/01/04 08:34:36;;;;;;;55.07;32.50;;;6.90;95.70;;;;;;5020613;28;20280;-68
2022/01/04 08:37:03;;;;;;;47.13;25.77;;;6.90;95.70;;;;;;5036803;28;20318;-68
2022/01/04 08:39:30;;;;;;;36.03;19.30;;;7.00;95.70;;;;;;5033183;28;20219;-68
2022/01/04 08:42:01;;;;;;;34.70;17.83;;;7.00;95.70;;;;;;5020006;28;20196;-68
2022/01/04 08:44:30;;;;;;;37.13;18.47;;;7.00;95.70;;;;;;5037819;28;20206;-68
2022/01/04 08:46:57;;;;;;;36.43;20.50;;;7.10;95.60;;;;;;5020064;28;20209;-68
2022/01/04 08:49:25;;;;;;;43.57;19.47;;;7.10;95.60;;;;;;5037269;28;20209;-68
2022/01/04 08:51:52;;;;;;;44.23;24.57;;;7.10;95.60;;;;;;5036912;28;20634;-68
2022/01/04 08:54:19;;;;;;;41.43;21.70;;;7.20;95.60;;;;;;5031778;28;20247;-68
2022/01/04 08:56:46;;;;;;;64.80;38.53;;;7.20;95.60;;;;;;5019409;28;20206;-68
2022/01/04 08:59:13;;;;;;;47.23;26.90;;;7.30;95.60;;;;;;5037572;28;20295;-68
2022/01/04 09:01:41;;;;;;;40.83;20.10;;;7.30;95.50;;;;;;5036273;28;20230;-68
2022/01/04 09:04:08;;;;;;;46.30;22.33;;;7.30;95.50;;;;;;5020264;28;20202;-68
2022/01/04 09:06:35;;;;;;;44.57;25.10;;;7.30;95.40;;;;;;5020070;28;20285;-68
2022/01/04 09:09:03;;;;;;;40.70;19.83;;;7.30;95.40;;;;;;5035310;28;20210;-68
2022/01/04 09:11:31;;;;;;;38.93;19.23;;;7.30;95.50;;;;;;5029775;28;20210;-68
2022/01/04 09:14:20;;;;;;;35.87;19.40;;;7.40;95.70;;;;;;5037509;28;20217;-68
2022/01/04 09:19:33;;;;;;;33.90;18.90;;;7.40;95.30;;;;;;5037480;28;20632;-68
2022/01/04 09:22:00;;;;;;;34.67;19.97;;;7.40;95.00;;;;;;5026541;28;20207;-68
2022/01/04 09:24:28;;;;;;;33.40;19.50;;;7.40;95.10;;;;;;5018070;28;20210;-68
2022/01/04 09:26:56;;;;;;;35.07;19.50;;;7.40;95.10;;;;;;5037078;28;20819;-68
2022/01/04 09:29:24;;;;;;;34.90;18.23;;;7.40;95.10;;;;;;5029381;28;20269;-68
2022/01/04 09:31:54;;;;;;;34.33;17.57;;;7.40;95.20;;;;;;5026226;28;20225;-68
2022/01/04 09:34:21;;;;;;;32.63;18.40;;;7.50;95.20;;;;;;5036374;28;20568;-68
2022/01/04 09:36:48;;;;;;;33.90;19.20;;;7.50;95.10;;;;;;5016302;28;20706;-68
2022/01/04 09:39:21;;;;;;;34.20;19.80;;;7.50;95.00;;;;;;5018162;28;20220;-68
2022/01/04 09:41:49;;;;;;;35.47;19.80;;;7.60;95.20;;;;;;5035066;28;20319;-68
2022/01/04 09:44:16;;;;;;;33.47;19.13;;;7.60;95.20;;;;;;5034766;28;20202;-68
2022/01/04 09:46:44;;;;;;;32.37;17.97;;;7.70;95.20;;;;;;5035898;28;20641;-68
2022/01/04 09:49:12;;;;;;;33.87;19.53;;;7.70;95.10;;;;;;5033646;28;20633;-68
2022/01/04 09:51:41;;;;;;;35.27;20.23;;;7.80;95.00;;;;;;5016772;28;20214;-68
2022/01/04 09:54:08;;;;;;;36.80;20.03;;;7.80;94.70;;;;;;5016491;28;20242;-68
2022/01/04 09:56:36;;;;;;;34.03;20.60;;;7.80;94.50;;;;;;5034354;28;20206;-68
2022/01/04 09:59:03;;;;;;;34.80;20.60;;;7.80;94.50;;;;;;5016708;28;20616;-68
2022/01/04 10:01:39;;;;;;;33.67;21.33;;;7.80;94.70;;;;;;5029102;28;20203;-68
2022/01/04 10:04:18;;;;;;;35.10;19.40;;;7.90;94.80;;;;;;5018109;28;20211;-68
2022/01/04 10:07:06;;;;;;;42.17;22.03;;;7.90;94.50;;;;;;5013774;28;20306;-68
2022/01/04 10:09:48;;;;;;;40.13;20.30;;;7.90;94.40;;;;;;5034060;28;20214;-68
2022/01/04 10:12:18;;;;;;;39.43;21.43;;;7.90;94.50;;;;;;5034351;28;20211;-68
2022/01/04 10:14:50;;;;;;;40.67;22.37;;;8.00;94.90;;;;;;5034932;28;20322;-68
2022/01/04 10:17:23;;;;;;;37.40;22.03;;;8.00;94.70;;;;;;5034409;28;20313;-68
2022/01/04 10:19:53;;;;;;;47.00;23.30;;;8.10;94.70;;;;;;5033303;28;20285;-68
2022/01/04 10:22:28;;;;;;;41.40;22.73;;;8.10;94.50;;;;;;5032699;28;20228;-68
2022/01/04 10:25:01;;;;;;;54.53;36.80;;;8.20;94.50;;;;;;5030787;28;20189;-68
2022/01/04 10:27:41;;;;;;;53.43;33.57;;;8.20;94.50;;;;;;5015258;28;20331;-68
2022/01/04 10:30:13;;;;;;;36.83;20.27;;;8.20;94.50;;;;;;5031836;28;20200;-69
2022/01/04 10:33:07;;;;;;;39.20;20.03;;;8.30;94.50;;;;;;5016070;28;20203;-69
2022/01/04 10:35:38;;;;;;;40.63;19.53;;;8.30;94.50;;;;;;5031126;28;20282;-69
2022/01/04 10:38:21;;;;;;;39.30;20.43;;;8.30;94.70;;;;;;5014210;28;20199;-69
2022/01/04 10:40:51;;;;;;;39.87;21.00;;;8.30;94.40;;;;;;5032115;28;20429;-69
2022/01/04 10:43:21;;;;;;;45.37;20.30;;;8.30;94.40;;;;;;5033948;28;20212;-69
2022/01/04 10:45:50;;;;;;;39.93;20.17;;;8.30;94.40;;;;;;5033526;28;20587;-69
2022/01/04 10:48:18;;;;;;;37.90;20.37;;;8.30;94.40;;;;;;5033504;28;20225;-69
2022/01/04 10:50:58;;;;;;;34.30;19.93;;;8.40;94.40;;;;;;5033228;28;20290;-69
2022/01/04 10:53:27;;;;;;;40.20;20.93;;;8.40;94.30;;;;;;5031352;28;20235;-69
2022/01/04 10:56:01;;;;;;;41.10;20.70;;;8.40;94.40;;;;;;5014907;28;20205;-69
2022/01/04 10:58:45;;;;;;;34.73;18.60;;;8.50;94.50;;;;;;5028096;28;20233;-68
2022/01/04 11:01:21;;;;;;;35.20;19.83;;;8.60;94.50;;;;;;5032884;28;20199;-68
2022/01/04 11:03:54;;;;;;;41.33;21.93;;;8.70;94.40;;;;;;5016967;28;20220;-68
2022/01/04 11:06:24;;;;;;;46.83;25.83;;;8.80;94.30;;;;;;5028093;28;20203;-69
2022/01/04 11:08:51;;;;;;;59.03;35.23;;;8.80;94.10;;;;;;5002939;28;20654;-67
2022/01/04 11:11:19;;;;;;;64.07;40.43;;;8.80;94.00;;;;;;5024014;28;20639;-67
2022/01/04 11:13:48;;;;;;;54.10;25.40;;;8.90;93.90;;;;;;5017534;28;20238;-67
2022/01/04 11:16:18;;;;;;;52.53;27.23;;;8.90;93.90;;;;;;5018771;28;20269;-67
2022/01/04 11:18:50;;;;;;;76.33;48.83;;;8.90;93.90;;;;;;5025268;28;20211;-67
2022/01/04 11:21:31;;;;;;;76.63;49.87;;;9.00;93.90;;;;;;5017598;28;20212;-67
2022/01/04 11:24:01;;;;;;;94.00;62.03;;;9.00;93.80;;;;;;5017093;28;20241;-67
2022/01/04 11:26:29;;;;;;;89.03;56.27;;;9.00;93.70;;;;;;5034743;28;20211;-67
2022/01/04 11:28:57;;;;;;;88.60;56.00;;;9.00;93.70;;;;;;5001738;28;20214;-67
2022/01/04 11:31:34;;;;;;;80.43;41.80;;;9.00;93.70;;;;;;5023646;28;20601;-68
2022/01/04 11:34:04;;;;;;;96.07;46.40;;;9.00;93.70;;;;;;5033460;28;20305;-67
2022/01/04 11:36:36;;;;;;;66.70;37.03;;;9.00;93.70;;;;;;5016128;28;20211;-67
2022/01/04 11:39:30;;;;;;;55.20;25.30;;;9.00;93.70;;;;;;5033104;28;20209;-67
2022/01/04 11:42:04;;;;;;;43.80;22.63;;;9.00;93.70;;;;;;5032085;28;20641;-67
2022/01/04 11:44:32;;;;;;;53.73;24.40;;;8.90;93.60;;;;;;5032842;28;20248;-67
2022/01/04 11:47:15;;;;;;;54.80;26.30;;;8.90;93.60;;;;;;5028529;28;20245;-68
2022/01/04 11:50:17;;;;;;;58.00;28.50;;;8.90;93.70;;;;;;5016640;28;20551;-68
2022/01/04 11:52:49;;;;;;;45.80;23.33;;;8.90;93.60;;;;;;5032863;28;20225;-68
2022/01/04 11:55:29;;;;;;;41.10;19.80;;;8.80;93.50;;;;;;5033159;28;20312;-67
2022/01/04 11:58:04;;;;;;;49.37;23.53;;;8.80;93.60;;;;;;5032205;28;20202;-67
2022/01/04 12:00:37;;;;;;;45.47;21.60;;;8.70;93.50;;;;;;5012384;28;20329;-67
2022/01/04 12:03:14;;;;;;;42.60;22.27;;;8.70;93.60;;;;;;5032690;28;20200;-67
2022/01/04 12:05:55;;;;;;;45.27;22.43;;;8.60;93.70;;;;;;5014097;28;20259;-69
2022/01/04 12:08:25;;;;;;;46.03;22.63;;;8.50;93.70;;;;;;5035004;28;20286;-69
2022/01/04 12:10:56;;;;;;;45.30;21.30;;;8.60;93.70;;;;;;5042353;28;20211;-69
2022/01/04 12:13:26;;;;;;;44.60;22.00;;;8.60;93.80;;;;;;5019342;28;20740;-69
2022/01/04 12:15:57;;;;;;;49.47;22.70;;;8.60;93.90;;;;;;5027099;28;20214;-69
2022/01/04 12:18:24;;;;;;;48.83;23.00;;;8.60;93.90;;;;;;5036670;28;20256;-69
2022/01/04 12:20:57;;;;;;;43.73;21.27;;;8.50;94.00;;;;;;5021409;28;20253;-69
2022/01/04 12:23:29;;;;;;;50.17;23.13;;;8.60;94.00;;;;;;5037472;28;20248;-69
2022/01/04 12:26:02;;;;;;;48.83;23.40;;;8.50;94.00;;;;;;5038276;28;20211;-69
2022/01/04 12:28:30;;;;;;;52.47;24.53;;;8.50;94.10;;;;;;5020773;28;20314;-69
2022/01/04 12:31:13;;;;;;;53.70;23.63;;;8.60;94.20;;;;;;5011350;28;20210;-69
2022/01/04 12:33:42;;;;;;;52.03;25.87;;;8.60;94.30;;;;;;5037844;28;20213;-69
2022/01/04 12:36:10;;;;;;;49.40;23.53;;;8.60;94.30;;;;;;5040512;28;20226;-69
2022/01/04 12:38:38;;;;;;;52.20;24.83;;;8.60;94.30;;;;;;5037071;28;20221;-69
2022/01/04 12:41:05;;;;;;;49.90;23.70;;;8.60;94.30;;;;;;5040124;28;20230;-69
2022/01/04 12:43:32;;;;;;;53.70;25.33;;;8.60;94.20;;;;;;5039805;28;20552;-68
2022/01/04 12:46:03;;;;;;;47.20;22.60;;;8.60;94.20;;;;;;5038328;28;20703;-68
2022/01/04 12:48:48;;;;;;;46.17;21.53;;;8.60;94.30;;;;;;5005227;28;20214;-68
2022/01/04 12:51:37;;;;;;;43.57;21.07;;;8.60;94.30;;;;;;5038503;28;20206;-68
2022/01/04 12:54:10;;;;;;;39.87;20.80;;;8.60;94.30;;;;;;5040646;28;20239;-68
2022/01/04 12:56:45;;;;;;;43.37;20.87;;;8.70;94.40;;;;;;5037835;28;20234;-68
2022/01/04 12:59:43;;;;;;;43.57;21.37;;;8.70;94.50;;;;;;5039172;28;20646;-68
2022/01/04 13:02:12;;;;;;;46.27;21.90;;;8.80;94.50;;;;;;5017472;28;20245;-69
2022/01/04 13:04:42;;;;;;;44.40;23.17;;;8.80;94.40;;;;;;5036830;28;20239;-69
2022/01/04 13:07:17;;;;;;;52.20;24.60;;;8.80;94.50;;;;;;5022190;28;20231;-69
2022/01/04 13:09:56;;;;;;;56.83;24.87;;;8.90;94.50;;;;;;5039459;28;20293;-69